sensor_id;sensor_type;location;lat;lon;timestamp;pressure;altitude;pressure_sealevel;temperature;humidity
22096;BME280;24083;55.670;37.568;2023-05-09T00:00:09;100466.53;;;9.39;54.86
22096;BME280;24083;55.670;37.568;2023-05-09T00:02:38;100469.72;;;9.10;55.42
22096;BME280;24083;55.670;37.568;2023-05-09T00:05:15;100469.94;;;9.00;55.46
22096;BME280;24083;55.670;37.568;2023-05-09T00:07:45;100469.72;;;9.10;55.43
22096;BME280;24083;55.670;37.568;2023-05-09T00:10:26;100470.88;;;9.39;55.21
22096;BME280;24083;55.670;37.568;2023-05-09T00:15:58;100470.25;;;8.85;56.05
22096;BME280;24083;55.670;37.568;2023-05-09T00:21:18;100473.22;;;9.10;55.44
22096;BME280;24083;55.670;37.568;2023-05-09T00:23:46;100476.34;;;9.26;55.41
22096;BME280;24083;55.670;37.568;2023-05-09T00:26:14;100469.25;;;9.34;55.23
22096;BME280;24083;55.670;37.568;2023-05-09T00:34:46;100477.16;;;8.84;55.92
22096;BME280;24083;55.670;37.568;2023-05-09T00:37:14;100470.25;;;8.85;56.35
22096;BME280;24083;55.670;37.568;2023-05-09T00:42:54;100474.31;;;8.98;56.09
22096;BME280;24083;55.670;37.568;2023-05-09T00:45:24;100479.31;;;8.62;56.16
22096;BME280;24083;55.670;37.568;2023-05-09T00:47:52;100465.22;;;8.75;56.15
22096;BME280;24083;55.670;37.568;2023-05-09T00:50:18;100472.25;;;8.70;56.29
22096;BME280;24083;55.670;37.568;2023-05-09T00:53:22;100478.22;;;8.24;56.91
22096;BME280;24083;55.670;37.568;2023-05-09T00:55:49;100479.31;;;8.62;56.74
22096;BME280;24083;55.670;37.568;2023-05-09T00:58:17;100479.19;;;8.18;56.92
22096;BME280;24083;55.670;37.568;2023-05-09T01:00:46;100480.13;;;8.66;56.66
22096;BME280;24083;55.670;37.568;2023-05-09T01:03:18;100481.03;;;8.63;56.56
22096;BME280;24083;55.670;37.568;2023-05-09T01:08:36;100474.78;;;8.73;56.27
22096;BME280;24083;55.670;37.568;2023-05-09T01:14:11;100483.63;;;8.63;56.56
22096;BME280;24083;55.670;37.568;2023-05-09T01:16:40;100482.28;;;8.40;56.91
22096;BME280;24083;55.670;37.568;2023-05-09T01:22:48;100476.25;;;8.38;57.14
22096;BME280;24083;55.670;37.568;2023-05-09T01:25:32;100474.34;;;8.50;56.93
22096;BME280;24083;55.670;37.568;2023-05-09T01:34:11;100472.47;;;8.58;56.72
22096;BME280;24083;55.670;37.568;2023-05-09T01:39:27;100478.47;;;8.60;56.78
22096;BME280;24083;55.670;37.568;2023-05-09T01:41:57;100480.31;;;8.55;56.87
22096;BME280;24083;55.670;37.568;2023-05-09T01:44:43;100483.91;;;8.48;56.95
22096;BME280;24083;55.670;37.568;2023-05-09T01:47:14;100491.78;;;8.41;57.88
22096;BME280;24083;55.670;37.568;2023-05-09T01:49:46;100486.25;;;8.10;58.24
22096;BME280;24083;55.670;37.568;2023-05-09T01:52:14;100487.34;;;8.48;57.88
22096;BME280;24083;55.670;37.568;2023-05-09T01:54:42;100488.25;;;8.45;58.71
22096;BME280;24083;55.670;37.568;2023-05-09T01:57:08;100489.59;;;8.68;58.32
22096;BME280;24083;55.670;37.568;2023-05-09T01:59:49;100491.91;;;8.35;59.49
22096;BME280;24083;55.670;37.568;2023-05-09T02:02:29;100491.69;;;8.48;58.92
22096;BME280;24083;55.670;37.568;2023-05-09T02:07:51;100494.03;;;8.08;59.24
22096;BME280;24083;55.670;37.568;2023-05-09T02:10:24;100491.84;;;8.38;59.38
22096;BME280;24083;55.670;37.568;2023-05-09T02:12:53;100486.84;;;8.26;59.26
22096;BME280;24083;55.670;37.568;2023-05-09T02:15:21;100483.72;;;8.58;59.04
22096;BME280;24083;55.670;37.568;2023-05-09T02:17:48;100484.72;;;8.51;59.23
22096;BME280;24083;55.670;37.568;2023-05-09T02:20:18;100488.56;;;8.27;59.31
22096;BME280;24083;55.670;37.568;2023-05-09T02:22:44;100491.53;;;8.57;59.11
22096;BME280;24083;55.670;37.568;2023-05-09T02:30:54;100497.38;;;8.16;60.12
22096;BME280;24083;55.670;37.568;2023-05-09T02:36:17;100485.84;;;8.85;59.14
22096;BME280;24083;55.670;37.568;2023-05-09T02:38:49;100492.38;;;9.04;58.86
22096;BME280;24083;55.670;37.568;2023-05-09T02:48:16;100492.91;;;9.22;58.78
22096;BME280;24083;55.670;37.568;2023-05-09T02:51:26;100495.56;;;9.19;59.00
22096;BME280;24083;55.670;37.568;2023-05-09T02:53:52;100498.75;;;9.33;58.79
22096;BME280;24083;55.670;37.568;2023-05-09T02:56:21;100504.84;;;9.31;58.86
22096;BME280;24083;55.670;37.568;2023-05-09T02:58:47;100502.06;;;9.42;58.66
22096;BME280;24083;55.670;37.568;2023-05-09T03:01:27;100503.56;;;9.52;58.89
22096;BME280;24083;55.670;37.568;2023-05-09T03:03:54;100509.19;;;9.73;58.44
22096;BME280;24083;55.670;37.568;2023-05-09T03:06:29;100506.50;;;9.76;58.36
22096;BME280;24083;55.670;37.568;2023-05-09T03:08:57;100507.47;;;9.72;57.77
22096;BME280;24083;55.670;37.568;2023-05-09T03:14:01;100503.09;;;9.74;57.79
22096;BME280;24083;55.670;37.568;2023-05-09T03:18:57;100515.09;;;9.40;58.79
22096;BME280;24083;55.670;37.568;2023-05-09T03:21:24;100506.66;;;10.07;58.31
22096;BME280;24083;55.670;37.568;2023-05-09T03:26:42;100512.50;;;10.17;58.55
22096;BME280;24083;55.670;37.568;2023-05-09T03:51:21;100512.19;;;11.29;57.72
22096;BME280;24083;55.670;37.568;2023-05-09T03:54:04;100518.38;;;10.95;58.27
22096;BME280;24083;55.670;37.568;2023-05-09T03:59:46;100513.66;;;11.09;58.66
22096;BME280;24083;55.670;37.568;2023-05-09T04:02:28;100518.88;;;11.09;58.57
22096;BME280;24083;55.670;37.568;2023-05-09T04:04:55;100531.75;;;10.82;59.19
22096;BME280;24083;55.670;37.568;2023-05-09T04:07:24;100527.06;;;10.95;58.60
22096;BME280;24083;55.670;37.568;2023-05-09T04:09:58;100526.78;;;10.73;58.40
22096;BME280;24083;55.670;37.568;2023-05-09T04:24:01;100535.03;;;10.91;59.09
22096;BME280;24083;55.670;37.568;2023-05-09T04:27:12;100532.66;;;11.45;58.95
22096;BME280;24083;55.670;37.568;2023-05-09T04:32:34;100531.97;;;11.68;58.20
22096;BME280;24083;55.670;37.568;2023-05-09T04:35:02;100528.19;;;11.78;57.38
22096;BME280;24083;55.670;37.568;2023-05-09T04:37:40;100529.91;;;12.08;57.05
22096;BME280;24083;55.670;37.568;2023-05-09T04:40:07;100530.91;;;11.73;56.99
22096;BME280;24083;55.670;37.568;2023-05-09T04:42:49;100530.41;;;12.46;56.53
22096;BME280;24083;55.670;37.568;2023-05-09T04:45:16;100526.69;;;12.53;56.05
22096;BME280;24083;55.670;37.568;2023-05-09T04:47:50;100530.72;;;11.80;56.25
22096;BME280;24083;55.670;37.568;2023-05-09T04:50:16;100529.53;;;12.45;55.55
22096;BME280;24083;55.670;37.568;2023-05-09T04:52:53;100524.56;;;11.82;55.52
22096;BME280;24083;55.670;37.568;2023-05-09T04:55:20;100524.78;;;12.58;55.74
22096;BME280;24083;55.670;37.568;2023-05-09T04:57:48;100530.63;;;11.54;55.86
22096;BME280;24083;55.670;37.568;2023-05-09T05:03:49;100524.69;;;12.61;55.99
22096;BME280;24083;55.670;37.568;2023-05-09T05:06:17;100536.66;;;12.69;56.04
22096;BME280;24083;55.670;37.568;2023-05-09T05:12:03;100526.91;;;12.98;56.21
22096;BME280;24083;55.670;37.568;2023-05-09T05:14:36;100535.66;;;12.97;56.37
22096;BME280;24083;55.670;37.568;2023-05-09T05:17:05;100527.00;;;12.44;56.52
22096;BME280;24083;55.670;37.568;2023-05-09T05:22:35;100536.16;;;12.30;56.36
22096;BME280;24083;55.670;37.568;2023-05-09T05:27:36;100536.44;;;11.93;57.51
22096;BME280;24083;55.670;37.568;2023-05-09T05:30:21;100541.88;;;11.86;56.98
22096;BME280;24083;55.670;37.568;2023-05-09T05:32:47;100541.81;;;12.18;57.24
22096;BME280;24083;55.670;37.568;2023-05-09T05:35:18;100532.47;;;12.09;57.80
22096;BME280;24083;55.670;37.568;2023-05-09T05:37:50;100533.28;;;12.11;57.13
22096;BME280;24083;55.670;37.568;2023-05-09T05:49:24;100523.28;;;12.51;55.92
22096;BME280;24083;55.670;37.568;2023-05-09T05:55:06;100518.78;;;12.80;54.68
22096;BME280;24083;55.670;37.568;2023-05-09T06:01:06;100519.31;;;13.15;55.66
22096;BME280;24083;55.670;37.568;2023-05-09T06:03:39;100510.63;;;12.64;54.41
22096;BME280;24083;55.670;37.568;2023-05-09T06:06:11;100520.06;;;12.94;54.24
22096;BME280;24083;55.670;37.568;2023-05-09T06:08:36;100509.06;;;13.09;53.41
22096;BME280;24083;55.670;37.568;2023-05-09T06:11:04;100514.63;;;13.00;53.83
22096;BME280;24083;55.670;37.568;2023-05-09T06:13:32;100510.97;;;13.28;53.77
22096;BME280;24083;55.670;37.568;2023-05-09T06:16:03;100508.97;;;14.04;53.35
22096;BME280;24083;55.670;37.568;2023-05-09T06:18:30;100510.78;;;14.02;53.26
22096;BME280;24083;55.670;37.568;2023-05-09T06:20:57;100507.13;;;13.84;52.58
22096;BME280;24083;55.670;37.568;2023-05-09T06:23:25;100504.84;;;13.76;51.98
22096;BME280;24083;55.670;37.568;2023-05-09T06:29:30;100499.03;;;12.71;52.38
22096;BME280;24083;55.670;37.568;2023-05-09T06:32:08;100496.41;;;14.54;51.94
22096;BME280;24083;55.670;37.568;2023-05-09T06:37:36;100487.59;;;14.77;50.95
22096;BME280;24083;55.670;37.568;2023-05-09T06:40:15;100488.97;;;13.79;50.06
22096;BME280;24083;55.670;37.568;2023-05-09T06:42:42;100474.13;;;14.23;49.79
22096;BME280;24083;55.670;37.568;2023-05-09T06:45:09;100476.91;;;13.98;49.88
22096;BME280;24083;55.670;37.568;2023-05-09T06:50:26;100479.66;;;14.79;49.16
22096;BME280;24083;55.670;37.568;2023-05-09T06:52:51;100476.03;;;14.81;48.99
22096;BME280;24083;55.670;37.568;2023-05-09T06:55:17;100474.59;;;15.14;49.09
22096;BME280;24083;55.670;37.568;2023-05-09T06:57:51;100475.59;;;15.31;48.52
22096;BME280;24083;55.670;37.568;2023-05-09T07:00:21;100464.63;;;15.02;48.30
22096;BME280;24083;55.670;37.568;2023-05-09T07:02:47;100469.06;;;15.20;48.14
22096;BME280;24083;55.670;37.568;2023-05-09T07:05:17;100457.78;;;15.74;48.05
22096;BME280;24083;55.670;37.568;2023-05-09T07:10:14;100457.47;;;14.24;48.08
22096;BME280;24083;55.670;37.568;2023-05-09T07:15:09;100463.66;;;15.23;48.22
22096;BME280;24083;55.670;37.568;2023-05-09T07:17:36;100455.94;;;14.80;47.68
22096;BME280;24083;55.670;37.568;2023-05-09T07:20:02;100442.59;;;14.85;46.99
22096;BME280;24083;55.670;37.568;2023-05-09T07:22:29;100447.31;;;14.97;47.97
22096;BME280;24083;55.670;37.568;2023-05-09T07:24:54;100446.34;;;15.19;47.68
22096;BME280;24083;55.670;37.568;2023-05-09T07:30:12;100447.22;;;14.59;47.28
22096;BME280;24083;55.670;37.568;2023-05-09T07:32:40;100441.13;;;15.93;46.53
22096;BME280;24083;55.670;37.568;2023-05-09T07:35:08;100437.00;;;14.53;46.24
22096;BME280;24083;55.670;37.568;2023-05-09T07:40:02;100441.75;;;15.61;46.45
22096;BME280;24083;55.670;37.568;2023-05-09T07:42:30;100439.22;;;16.65;46.03
22096;BME280;24083;55.670;37.568;2023-05-09T07:44:57;100434.00;;;17.31;45.34
22096;BME280;24083;55.670;37.568;2023-05-09T07:47:24;100431.53;;;17.44;44.73
22096;BME280;24083;55.670;37.568;2023-05-09T07:52:56;100418.50;;;16.59;44.95
22096;BME280;24083;55.670;37.568;2023-05-09T07:55:22;100420.78;;;16.83;45.38
22096;BME280;24083;55.670;37.568;2023-05-09T07:57:48;100419.44;;;16.58;45.28
22096;BME280;24083;55.670;37.568;2023-05-09T08:02:48;100416.06;;;17.05;45.05
22096;BME280;24083;55.670;37.568;2023-05-09T08:10:54;100394.75;;;16.60;43.90
22096;BME280;24083;55.670;37.568;2023-05-09T08:13:22;100393.88;;;17.42;43.65
22096;BME280;24083;55.670;37.568;2023-05-09T08:15:55;100385.34;;;17.99;42.85
22096;BME280;24083;55.670;37.568;2023-05-09T08:18:42;100387.19;;;17.67;43.62
22096;BME280;24083;55.670;37.568;2023-05-09T08:24:03;100386.78;;;17.58;43.86
22096;BME280;24083;55.670;37.568;2023-05-09T08:26:48;100389.72;;;17.38;44.12
22096;BME280;24083;55.670;37.568;2023-05-09T08:29:19;100384.59;;;16.53;43.12
22096;BME280;24083;55.670;37.568;2023-05-09T08:31:49;100377.56;;;16.53;43.50
22096;BME280;24083;55.670;37.568;2023-05-09T08:40:29;100361.16;;;18.21;42.41
22096;BME280;24083;55.670;37.568;2023-05-09T08:42:57;100369.28;;;18.33;42.68
22096;BME280;24083;55.670;37.568;2023-05-09T08:47:53;100359.28;;;18.96;41.93
22096;BME280;24083;55.670;37.568;2023-05-09T08:50:20;100345.69;;;17.08;41.23
22096;BME280;24083;55.670;37.568;2023-05-09T08:52:48;100356.44;;;17.51;42.05
22096;BME280;24083;55.670;37.568;2023-05-09T08:55:17;100347.91;;;16.99;42.54
22096;BME280;24083;55.670;37.568;2023-05-09T08:57:44;100357.75;;;18.19;42.35
22096;BME280;24083;55.670;37.568;2023-05-09T09:00:10;100355.13;;;18.19;42.11
22096;BME280;24083;55.670;37.568;2023-05-09T09:02:42;100347.41;;;17.86;42.11
22096;BME280;24083;55.670;37.568;2023-05-09T09:05:14;100339.34;;;19.45;41.17
22096;BME280;24083;55.670;37.568;2023-05-09T09:07:40;100337.94;;;19.54;40.60
22096;BME280;24083;55.670;37.568;2023-05-09T09:10:07;100328.47;;;20.16;40.65
22096;BME280;24083;55.670;37.568;2023-05-09T09:12:35;100331.31;;;19.87;40.50
22096;BME280;24083;55.670;37.568;2023-05-09T09:15:03;100326.94;;;19.73;40.05
22096;BME280;24083;55.670;37.568;2023-05-09T09:17:31;100326.56;;;19.92;39.84
22096;BME280;24083;55.670;37.568;2023-05-09T09:20:06;100330.44;;;18.49;39.04
22096;BME280;24083;55.670;37.568;2023-05-09T09:22:34;100332.19;;;17.14;40.60
22096;BME280;24083;55.670;37.568;2023-05-09T09:27:46;100322.91;;;17.69;40.84
22096;BME280;24083;55.670;37.568;2023-05-09T09:30:14;100323.91;;;17.36;41.21
22096;BME280;24083;55.670;37.568;2023-05-09T09:32:41;100321.38;;;18.10;41.51
22096;BME280;24083;55.670;37.568;2023-05-09T09:35:10;100322.88;;;17.23;41.34
22096;BME280;24083;55.670;37.568;2023-05-09T09:40:29;100321.16;;;18.57;41.69
22096;BME280;24083;55.670;37.568;2023-05-09T09:42:56;100314.19;;;17.98;41.00
22096;BME280;24083;55.670;37.568;2023-05-09T09:45:24;100323.81;;;18.71;40.99
22096;BME280;24083;55.670;37.568;2023-05-09T09:50:47;100315.53;;;15.98;42.06
22096;BME280;24083;55.670;37.568;2023-05-09T09:56:36;100315.34;;;17.63;41.14
22096;BME280;24083;55.670;37.568;2023-05-09T09:59:11;100316.44;;;17.89;40.32
22096;BME280;24083;55.670;37.568;2023-05-09T10:04:29;100305.84;;;17.44;40.15
22096;BME280;24083;55.670;37.568;2023-05-09T10:07:00;100296.03;;;19.73;40.24
22096;BME280;24083;55.670;37.568;2023-05-09T10:13:23;100284.34;;;20.16;39.50
22096;BME280;24083;55.670;37.568;2023-05-09T10:15:49;100291.94;;;19.29;39.54
22096;BME280;24083;55.670;37.568;2023-05-09T10:18:16;100293.38;;;18.36;39.73
22096;BME280;24083;55.670;37.568;2023-05-09T10:20:56;100282.13;;;19.97;39.62
22096;BME280;24083;55.670;37.568;2023-05-09T10:23:27;100285.94;;;20.06;39.20
22096;BME280;24083;55.670;37.568;2023-05-09T10:28:34;100278.28;;;17.50;39.49
22096;BME280;24083;55.670;37.568;2023-05-09T10:37:20;100275.34;;;17.85;40.41
22096;BME280;24083;55.670;37.568;2023-05-09T10:39:48;100281.66;;;17.97;40.60
22096;BME280;24083;55.670;37.568;2023-05-09T10:53:49;100268.47;;;17.97;39.67
22096;BME280;24083;55.670;37.568;2023-05-09T10:59:05;100263.44;;;18.65;39.85
22096;BME280;24083;55.670;37.568;2023-05-09T11:05:11;100252.19;;;18.05;40.05
22096;BME280;24083;55.670;37.568;2023-05-09T11:07:41;100245.16;;;18.20;39.86
22096;BME280;24083;55.670;37.568;2023-05-09T11:10:15;100246.47;;;18.69;39.41
22096;BME280;24083;55.670;37.568;2023-05-09T11:16:55;100227.09;;;20.77;39.06
22096;BME280;24083;55.670;37.568;2023-05-09T11:27:50;100217.06;;;18.88;38.60
22096;BME280;24083;55.670;37.568;2023-05-09T11:30:19;100215.84;;;20.12;38.77
22096;BME280;24083;55.670;37.568;2023-05-09T11:32:50;100206.53;;;19.41;37.97
22096;BME280;24083;55.670;37.568;2023-05-09T11:40:30;100208.84;;;18.38;39.05
22096;BME280;24083;55.670;37.568;2023-05-09T11:43:31;100210.00;;;18.61;38.93
22096;BME280;24083;55.670;37.568;2023-05-09T11:48:50;100209.22;;;18.03;39.81
22096;BME280;24083;55.670;37.568;2023-05-09T11:51:18;100201.13;;;18.06;39.15
22096;BME280;24083;55.670;37.568;2023-05-09T11:57:00;100196.38;;;19.35;38.94
22096;BME280;24083;55.670;37.568;2023-05-09T11:59:27;100194.06;;;19.31;38.60
22096;BME280;24083;55.670;37.568;2023-05-09T12:01:53;100184.72;;;19.77;38.95
22096;BME280;24083;55.670;37.568;2023-05-09T12:04:37;100194.25;;;17.60;38.89
22096;BME280;24083;55.670;37.568;2023-05-09T12:16:34;100183.03;;;19.89;38.92
22096;BME280;24083;55.670;37.568;2023-05-09T12:19:12;100173.25;;;20.76;38.00
22096;BME280;24083;55.670;37.568;2023-05-09T12:21:38;100163.63;;;22.36;37.48
22096;BME280;24083;55.670;37.568;2023-05-09T12:24:04;100158.88;;;24.00;36.86
22096;BME280;24083;55.670;37.568;2023-05-09T12:32:21;100136.66;;;27.48;35.25
22096;BME280;24083;55.670;37.568;2023-05-09T12:34:52;100134.63;;;28.85;34.35
22096;BME280;24083;55.670;37.568;2023-05-09T12:37:19;100132.44;;;29.70;33.26
22096;BME280;24083;55.670;37.568;2023-05-09T12:46:17;100130.34;;;24.41;33.55
22096;BME280;24083;55.670;37.568;2023-05-09T12:48:55;100134.59;;;22.12;33.86
22096;BME280;24083;55.670;37.568;2023-05-09T12:51:21;100133.31;;;20.67;34.86
22096;BME280;24083;55.670;37.568;2023-05-09T12:57:31;100116.13;;;22.22;34.58
22096;BME280;24083;55.670;37.568;2023-05-09T12:59:59;100115.09;;;22.46;34.61
22096;BME280;24083;55.670;37.568;2023-05-09T13:02:27;100108.97;;;22.45;33.76
22096;BME280;24083;55.670;37.568;2023-05-09T13:05:04;100105.97;;;22.27;34.13
22096;BME280;24083;55.670;37.568;2023-05-09T13:19:05;100101.59;;;20.78;35.29
22096;BME280;24083;55.670;37.568;2023-05-09T13:21:31;100110.97;;;19.85;35.55
22096;BME280;24083;55.670;37.568;2023-05-09T13:23:57;100103.19;;;19.19;35.53
22096;BME280;24083;55.670;37.568;2023-05-09T13:36:08;100099.03;;;19.92;36.60
22096;BME280;24083;55.670;37.568;2023-05-09T13:38:36;100085.50;;;20.93;35.47
22096;BME280;24083;55.670;37.568;2023-05-09T13:41:30;100083.59;;;21.97;34.95
22096;BME280;24083;55.670;37.568;2023-05-09T13:44:00;100082.44;;;21.44;35.39
22096;BME280;24083;55.670;37.568;2023-05-09T13:46:27;100081.31;;;21.01;35.14
22096;BME280;24083;55.670;37.568;2023-05-09T13:48:53;100080.66;;;20.51;35.64
22096;BME280;24083;55.670;37.568;2023-05-09T13:51:21;100075.72;;;20.22;35.57
22096;BME280;24083;55.670;37.568;2023-05-09T13:53:47;100078.03;;;20.26;35.53
22096;BME280;24083;55.670;37.568;2023-05-09T13:56:13;100080.91;;;20.23;35.54
22096;BME280;24083;55.670;37.568;2023-05-09T13:58:47;100074.72;;;19.61;35.29
22096;BME280;24083;55.670;37.568;2023-05-09T14:01:15;100074.31;;;18.90;36.38
22096;BME280;24083;55.670;37.568;2023-05-09T14:03:41;100073.84;;;18.70;36.40
22096;BME280;24083;55.670;37.568;2023-05-09T14:06:07;100074.34;;;19.03;36.55
22096;BME280;24083;55.670;37.568;2023-05-09T14:08:44;100080.09;;;18.29;36.67
22096;BME280;24083;55.670;37.568;2023-05-09T14:14:17;100072.31;;;19.58;36.18
22096;BME280;24083;55.670;37.568;2023-05-09T14:16:45;100069.84;;;18.77;36.81
22096;BME280;24083;55.670;37.568;2023-05-09T14:19:27;100070.19;;;18.86;37.11
22096;BME280;24083;55.670;37.568;2023-05-09T14:21:54;100073.25;;;18.79;36.91
22096;BME280;24083;55.670;37.568;2023-05-09T14:32:45;100061.00;;;19.56;35.83
22096;BME280;24083;55.670;37.568;2023-05-09T14:35:14;100045.88;;;19.58;35.61
22096;BME280;24083;55.670;37.568;2023-05-09T14:37:46;100052.75;;;19.48;36.03
22096;BME280;24083;55.670;37.568;2023-05-09T14:40:25;100054.13;;;18.35;36.56
22096;BME280;24083;55.670;37.568;2023-05-09T14:43:09;100047.84;;;18.51;37.04
22096;BME280;24083;55.670;37.568;2023-05-09T14:49:12;100051.69;;;18.05;37.00
22096;BME280;24083;55.670;37.568;2023-05-09T15:01:03;100053.88;;;17.13;37.85
22096;BME280;24083;55.670;37.568;2023-05-09T15:03:30;100060.09;;;17.26;37.71
22096;BME280;24083;55.670;37.568;2023-05-09T15:06:09;100053.13;;;17.25;37.54
22096;BME280;24083;55.670;37.568;2023-05-09T15:21:46;100039.19;;;17.38;37.02
22096;BME280;24083;55.670;37.568;2023-05-09T15:24:13;100022.47;;;18.08;37.11
22096;BME280;24083;55.670;37.568;2023-05-09T15:26:38;100030.44;;;19.39;36.65
22096;BME280;24083;55.670;37.568;2023-05-09T15:29:09;100024.66;;;19.34;36.09
22096;BME280;24083;55.670;37.568;2023-05-09T15:31:39;100022.84;;;18.82;36.71
22096;BME280;24083;55.670;37.568;2023-05-09T15:37:46;100014.94;;;18.82;37.28
22096;BME280;24083;55.670;37.568;2023-05-09T15:54:02;99984.84;;;25.16;34.33
22096;BME280;24083;55.670;37.568;2023-05-09T15:59:24;99976.13;;;26.42;33.68
22096;BME280;24083;55.670;37.568;2023-05-09T16:05:43;99970.56;;;27.31;33.81
22096;BME280;24083;55.670;37.568;2023-05-09T16:08:09;99973.38;;;27.89;33.65
22096;BME280;24083;55.670;37.568;2023-05-09T16:10:35;99965.13;;;26.72;33.26
22096;BME280;24083;55.670;37.568;2023-05-09T16:13:01;99965.78;;;25.39;32.94
22096;BME280;24083;55.670;37.568;2023-05-09T16:15:43;99971.31;;;23.73;33.42
22096;BME280;24083;55.670;37.568;2023-05-09T16:18:10;99968.25;;;24.27;33.65
22096;BME280;24083;55.670;37.568;2023-05-09T16:20:37;99965.31;;;24.87;33.24
22096;BME280;24083;55.670;37.568;2023-05-09T16:23:06;99965.44;;;25.24;32.91
22096;BME280;24083;55.670;37.568;2023-05-09T16:25:46;99972.09;;;24.82;33.03
22096;BME280;24083;55.670;37.568;2023-05-09T16:28:17;99969.72;;;24.79;33.31
22096;BME280;24083;55.670;37.568;2023-05-09T16:30:45;99960.50;;;25.01;33.13
22096;BME280;24083;55.670;37.568;2023-05-09T16:33:11;99958.66;;;24.54;32.95
22096;BME280;24083;55.670;37.568;2023-05-09T16:35:37;99944.41;;;23.66;33.62
22096;BME280;24083;55.670;37.568;2023-05-09T16:38:03;99955.59;;;22.68;33.92
22096;BME280;24083;55.670;37.568;2023-05-09T16:40:41;99963.31;;;21.64;34.37
22096;BME280;24083;55.670;37.568;2023-05-09T16:46:01;99971.22;;;21.75;34.96
22096;BME280;24083;55.670;37.568;2023-05-09T16:48:28;99953.50;;;22.08;35.34
22096;BME280;24083;55.670;37.568;2023-05-09T16:50:58;99971.53;;;21.38;36.08
22096;BME280;24083;55.670;37.568;2023-05-09T16:53:26;99969.03;;;20.91;36.09
22096;BME280;24083;55.670;37.568;2023-05-09T16:56:05;99967.63;;;20.51;36.74
22096;BME280;24083;55.670;37.568;2023-05-09T16:58:33;99965.09;;;20.14;37.32
22096;BME280;24083;55.670;37.568;2023-05-09T17:00:59;99976.97;;;19.97;37.46
22096;BME280;24083;55.670;37.568;2023-05-09T17:03:27;99971.47;;;19.63;37.52
22096;BME280;24083;55.670;37.568;2023-05-09T17:05:55;99963.75;;;19.35;37.73
22096;BME280;24083;55.670;37.568;2023-05-09T17:08:22;99973.53;;;18.96;38.32
22096;BME280;24083;55.670;37.568;2023-05-09T17:17:12;99977.03;;;18.17;39.15
22096;BME280;24083;55.670;37.568;2023-05-09T17:20:21;99976.53;;;17.98;39.28
22096;BME280;24083;55.670;37.568;2023-05-09T17:22:47;99981.84;;;17.83;39.31
22096;BME280;24083;55.670;37.568;2023-05-09T17:25:13;99989.78;;;17.83;39.85
22096;BME280;24083;55.670;37.568;2023-05-09T17:27:40;99987.06;;;17.28;40.14
22096;BME280;24083;55.670;37.568;2023-05-09T17:30:19;99987.44;;;17.08;40.87
22096;BME280;24083;55.670;37.568;2023-05-09T17:32:46;99996.09;;;17.10;40.84
22096;BME280;24083;55.670;37.568;2023-05-09T17:35:12;99992.25;;;17.15;40.76
22096;BME280;24083;55.670;37.568;2023-05-09T17:37:43;99995.47;;;17.06;41.06
22096;BME280;24083;55.670;37.568;2023-05-09T17:40:16;99995.53;;;16.90;41.10
22096;BME280;24083;55.670;37.568;2023-05-09T17:42:42;99999.78;;;16.62;40.65
22096;BME280;24083;55.670;37.568;2023-05-09T17:45:09;99995.78;;;16.26;39.73
22096;BME280;24083;55.670;37.568;2023-05-09T17:47:37;100001.25;;;15.91;39.82
22096;BME280;24083;55.670;37.568;2023-05-09T17:50:06;99997.06;;;15.38;40.51
22096;BME280;24083;55.670;37.568;2023-05-09T17:52:33;100006.88;;;16.31;41.51
22096;BME280;24083;55.670;37.568;2023-05-09T18:00:55;100006.16;;;15.33;42.23
22096;BME280;24083;55.670;37.568;2023-05-09T18:03:25;99999.34;;;15.28;42.13
22096;BME280;24083;55.670;37.568;2023-05-09T18:06:00;99994.50;;;14.87;42.27
22096;BME280;24083;55.670;37.568;2023-05-09T18:08:27;100002.66;;;14.98;42.41
22096;BME280;24083;55.670;37.568;2023-05-09T18:10:55;100001.22;;;14.93;42.80
22096;BME280;24083;55.670;37.568;2023-05-09T18:13:21;99994.44;;;14.71;43.00
22096;BME280;24083;55.670;37.568;2023-05-09T18:15:49;100001.78;;;14.82;42.80
22096;BME280;24083;55.670;37.568;2023-05-09T18:21:10;99997.56;;;14.95;43.19
22096;BME280;24083;55.670;37.568;2023-05-09T18:30:24;99991.59;;;14.40;43.54
22096;BME280;24083;55.670;37.568;2023-05-09T18:35:51;99995.44;;;14.51;43.80
22096;BME280;24083;55.670;37.568;2023-05-09T18:38:23;99997.28;;;14.14;44.28
22096;BME280;24083;55.670;37.568;2023-05-09T18:43:49;99991.44;;;14.26;44.47
22096;BME280;24083;55.670;37.568;2023-05-09T18:59:05;100009.00;;;14.06;44.35
22096;BME280;24083;55.670;37.568;2023-05-09T19:01:34;100003.06;;;14.03;44.66
22096;BME280;24083;55.670;37.568;2023-05-09T19:04:03;100000.75;;;14.14;44.74
22096;BME280;24083;55.670;37.568;2023-05-09T19:06:42;100005.06;;;13.98;44.55
22096;BME280;24083;55.670;37.568;2023-05-09T19:12:03;100004.03;;;14.00;44.80
22096;BME280;24083;55.670;37.568;2023-05-09T19:14:31;100001.16;;;14.24;44.61
22096;BME280;24083;55.670;37.568;2023-05-09T19:22:49;100000.13;;;13.53;45.31
22096;BME280;24083;55.670;37.568;2023-05-09T19:25:16;99998.97;;;13.78;45.21
22096;BME280;24083;55.670;37.568;2023-05-09T19:28:09;100011.28;;;13.95;45.14
22096;BME280;24083;55.670;37.568;2023-05-09T19:30:39;100003.53;;;13.74;45.30
22096;BME280;24083;55.670;37.568;2023-05-09T19:33:04;100000.56;;;13.63;45.24
22096;BME280;24083;55.670;37.568;2023-05-09T19:35:34;100001.50;;;13.99;44.96
22096;BME280;24083;55.670;37.568;2023-05-09T19:38:03;99995.03;;;13.69;45.25